DTTZ/TOE METAR and TAF weather

Enter ICAO airport designator
Station Type Date Time Source
DTTZ METAR 2018/12/10 18:00 UTC NOAA

DTTZ 101800Z 27007KT CAVOK 15/05 Q1023 NOSIG


Station Type Date Time Source
DTTZ Decoded METAR 2018/12/10 18:00 UTC NOAA

Tozeur, Tunisia (DTTZ) 33-55N 008-06E 93M
Dec 10, 2018 - 01:00 PM EST / 2018.12.10 1800 UTC
Wind: from the W (270 degrees) at 8 MPH (7 KT):0
Visibility: greater than 7 mile(s):0
Temperature: 59 F (15 C)
Dew Point: 41 F (5 C)
Relative Humidity: 51%
Pressure (altimeter): 30.21 in. Hg (1023 hPa)
ob: DTTZ 101800Z 27007KT CAVOK 15/05 Q1023 NOSIG
cycle: 18

Station Type Date Time Source
DTTZ TAF 2018/12/10 18:42 UTC NOAA

TAF DTTZ 101740Z 1018/1118 28004KT CAVOK
BECMG 1020/1022 VRB03KT
BECMG 1110/1112 20005KT


Example: see airport list